Extreme low temperature From: 16-01-2019 01:00 Until: 17-01-2019 00:59 warning for: Extreme low temperature Level: Yellow info button

My Other Sites:

SYKIA HOMEWEATHERSTATIONsikeaweather.alinos.eu

SYKIA METEOTEMPLATEsykiameteo.alinos.eu

alinos.eualinos.eu



Nearby METAR Reports

   
LGEL - Elefsis (hel-Afb, Greece
Distance from station: E 77 km
Updated: 16-01-2019 01:50
Mostly Cloudy  
Mostly Cloudy  
   Wind: NW 31.5 km/h<br />Gust to 31.5 km/h
Wind: NW 31.5 km/h
Gust to 31.5 km/h
Temperature: 4°C
Wind Chill: -1°C
Dew Point: 3°C
Humidity: 93%
Barometer: 1013 hPa
Clouds: Mostly Cloudy
Visibility: More than 10 km
Cloud details: Few Clouds 3000 ft,
Mostly Cloudy 7000 ft
LGEL 152350Z 32017G33KT 9999 FEW030 BKN070 04/03 Q1013
LGRX - Araxos (civ/Afb), Greece
Distance from station: W 110 km
Updated: 16-01-2019 01:50
Few Clouds  
Few Clouds  
   Wind: NNW 7.4 km/h
Wind: NNW 7.4 km/h
Temperature: 5°C
Wind Chill: 3°C
Dew Point: -12°C
Humidity: 28%
Barometer: 1018 hPa
Clouds: Few Clouds
Visibility: More than 10 km
Cloud details: Few Clouds 2000 ft
LGRX 152350Z 33004KT 9999 FEW020 05/M12 Q1018
LGAV - Athens/Elef-Ven, Greece
Distance from station: E 113 km
Updated: 16-01-2019 01:50
Partly Cloudy  
Partly Cloudy  
   Wind: NNE 18.5 km/h
Wind: NNE 18.5 km/h
Temperature: 2°C
Wind Chill: -2°C
Dew Point: -1°C
Humidity: 81%
Barometer: 1015 hPa
Clouds: Partly Cloudy
Visibility: More than 10 km
Cloud details: Few Clouds 2000 ft,
Partly Cloudy 4000 ft
LGAV 152350Z 02010KT 9999 FEW020 SCT040 02/M01 Q1015 NOSIG
LGAD - Andravida (civ/A, Greece
Distance from station: W 124 km
Updated: 16-01-2019 01:50
Few Clouds  
Few Clouds  
   Wind: North 11.1 km/h
Wind: North 11.1 km/h
Temperature: 4°C
Wind Chill: 1°C
Dew Point: -8°C
Humidity: 42%
Barometer: 1018 hPa
Clouds: Few Clouds
Visibility: More than 10 km
Cloud details: Few Clouds 2000 ft
LGAD 152350Z 36006KT 9999 FEW020 04/M08 Q1018
LGKL - Kalamata (hel-Af, Greece
Distance from station: SSW 124 km
Updated: 16-01-2019 01:50
  
  
   Wind: North 7.4 km/h
Wind: North 7.4 km/h
Temperature: 1°C
Wind Chill: -1°C
Dew Point: -10°C
Humidity: 44%
Barometer: 1016 hPa
LGKL 152350Z AUTO 35004KT 320V090 //// // ////// 01/M10 Q1016 RE//
LGBL - Nea Anchialos, Greece
Distance from station: N 129 km
Updated: 16-01-2019 01:50
Few Clouds  
Few Clouds  
   Wind: West 14.8 km/h
Wind: West 14.8 km/h
Temperature: 0°C
Wind Chill: -4°C
Dew Point: -10°C
Humidity: 47%
Barometer: 1019 hPa
Clouds: Few Clouds
Visibility: More than 10 km
Cloud details: Few Clouds 3000 ft
LGBL 152350Z 28008KT 9999 FEW030 00/M10 Q1019

Script developed by  Saratoga-weather.org Adapted for the template by  Weerstation Leuven

You find our weather info also at:

European Weather Network

Weather Underground

AWEKAS

Citizen Weather Observer Program (CWOP)

HAMweather, WeatherForYou, PWS Weather

UK Metoffice

Equipment we use:

Weather-station
Davis Wireless Vantage Pro2

Davis Wireless Vantage Pro2